createdAt,value
2022-08-07T00:04:39.566Z,15.60
2022-08-07T00:14:44.419Z,15.40
2022-08-07T00:24:49.512Z,15.30
2022-08-07T00:34:54.071Z,15.40
2022-08-07T00:44:59.387Z,15.40
2022-08-07T00:55:04.582Z,15.30
2022-08-07T01:05:19.330Z,15.30
2022-08-07T01:15:35.936Z,15.10
2022-08-07T01:25:55.558Z,14.90
2022-08-07T01:36:06.491Z,15.00
2022-08-07T01:46:13.172Z,14.90
2022-08-07T01:56:24.198Z,14.90
2022-08-07T02:06:35.589Z,14.80
2022-08-07T02:16:40.668Z,14.60
2022-08-07T02:26:48.342Z,14.60
2022-08-07T02:36:53.329Z,14.50
2022-08-07T02:47:00.826Z,14.30
2022-08-07T02:57:06.562Z,14.20
2022-08-07T03:07:13.014Z,14.00
2022-08-07T03:17:25.573Z,13.90
2022-08-07T03:27:42.179Z,13.80
2022-08-07T03:37:59.134Z,13.70
2022-08-07T03:48:05.207Z,13.60
2022-08-07T03:59:04.641Z,13.60
2022-08-07T04:08:41.178Z,13.50
2022-08-07T04:18:59.840Z,13.40
2022-08-07T04:29:11.046Z,13.40
2022-08-07T04:39:15.040Z,13.40
2022-08-07T04:49:37.769Z,13.50
2022-08-07T05:00:11.067Z,13.50
2022-08-07T05:10:24.690Z,13.60
2022-08-07T05:20:36.676Z,13.70
2022-08-07T05:30:43.636Z,13.80
2022-08-07T05:40:51.998Z,13.90
2022-08-07T05:50:57.937Z,14.10
2022-08-07T06:01:05.076Z,14.30
2022-08-07T06:11:12.991Z,14.60
2022-08-07T06:22:16.780Z,15.00
2022-08-07T06:31:49.692Z,15.50
2022-08-07T06:42:04.304Z,15.70
2022-08-07T06:52:12.104Z,16.30
2022-08-07T07:02:48.123Z,16.90
2022-08-07T07:12:53.776Z,17.20
2022-08-07T07:24:10.799Z,17.90
2022-08-07T07:33:25.004Z,18.30
2022-08-07T07:43:48.060Z,18.60
2022-08-07T07:53:59.715Z,19.30
2022-08-07T08:04:11.996Z,19.40
2022-08-07T08:14:21.420Z,19.80
2022-08-07T08:24:57.096Z,20.40
2022-08-07T08:35:18.276Z,20.70
2022-08-07T08:45:59.013Z,21.10
2022-08-07T08:56:11.212Z,21.30
2022-08-07T09:06:26.462Z,21.50
2022-08-07T09:16:58.004Z,22.10
2022-08-07T09:27:12.049Z,22.20
2022-08-07T09:37:53.507Z,22.30
2022-08-07T09:48:14.463Z,22.60
2022-08-07T09:59:46.130Z,22.60
2022-08-07T10:10:21.420Z,22.80
2022-08-07T10:20:40.975Z,23.10
2022-08-07T10:31:05.865Z,23.50
2022-08-07T10:41:47.392Z,23.50
2022-08-07T10:52:13.030Z,23.90
2022-08-07T11:02:34.136Z,23.90
2022-08-07T11:13:02.029Z,24.00
2022-08-07T11:23:20.629Z,23.60
2022-08-07T11:33:58.626Z,24.10
2022-08-07T11:44:18.677Z,24.60
2022-08-07T11:55:03.435Z,24.30
2022-08-07T12:05:28.333Z,24.60
2022-08-07T12:16:05.914Z,24.60
2022-08-07T12:26:23.101Z,24.50
2022-08-07T12:36:33.911Z,24.60
2022-08-07T12:46:54.626Z,25.00
2022-08-07T12:57:09.739Z,25.30
2022-08-07T13:08:14.673Z,25.40
2022-08-07T13:18:28.688Z,25.80
2022-08-07T13:28:39.861Z,25.80
2022-08-07T13:38:57.797Z,25.30
2022-08-07T13:49:08.927Z,25.90
2022-08-07T13:59:33.210Z,25.80
2022-08-07T14:10:02.693Z,25.60
2022-08-07T14:20:42.873Z,25.70
2022-08-07T14:30:40.867Z,25.70
2022-08-07T14:40:49.447Z,26.00
2022-08-07T14:50:57.762Z,25.90
2022-08-07T15:11:52.820Z,26.30
2022-08-07T15:22:05.717Z,25.90
2022-08-07T15:32:12.517Z,26.10
2022-08-07T15:42:51.742Z,26.20
2022-08-07T15:53:02.450Z,26.20
2022-08-07T16:03:20.822Z,26.60
2022-08-07T16:14:07.020Z,26.80
2022-08-07T16:24:34.901Z,27.20
2022-08-07T16:34:48.833Z,27.80
2022-08-07T16:46:40.761Z,27.50
2022-08-07T16:55:53.765Z,27.70
2022-08-07T17:06:30.705Z,28.20
2022-08-07T17:16:46.094Z,28.00
2022-08-07T17:27:06.587Z,28.90
2022-08-07T17:38:06.745Z,28.60
2022-08-07T17:48:02.715Z,28.90
2022-08-07T17:58:30.133Z,29.80
2022-08-07T18:09:01.881Z,28.90
2022-08-07T18:21:12.641Z,27.70
2022-08-07T18:30:07.771Z,25.90
2022-08-07T18:40:43.895Z,25.00
2022-08-07T18:51:15.075Z,24.60
2022-08-07T19:02:32.871Z,24.10
2022-08-07T19:12:17.877Z,23.70
2022-08-07T19:22:31.166Z,23.30
2022-08-07T19:32:45.379Z,23.00
2022-08-07T19:42:51.630Z,22.70
2022-08-07T19:52:58.897Z,22.50
2022-08-07T20:03:33.891Z,22.20
2022-08-07T20:13:41.755Z,21.70
2022-08-07T20:23:54.130Z,21.60
2022-08-07T20:34:01.765Z,21.40
2022-08-07T20:44:12.333Z,21.20
2022-08-07T20:54:29.824Z,20.80
2022-08-07T21:04:37.024Z,20.60
2022-08-07T21:14:48.516Z,20.40
2022-08-07T21:25:12.185Z,20.30
2022-08-07T21:36:03.835Z,20.10
2022-08-07T21:46:09.033Z,19.90
2022-08-07T21:56:39.673Z,19.80
2022-08-07T22:06:59.745Z,19.60
2022-08-07T22:17:07.599Z,19.50
2022-08-07T22:27:20.784Z,19.30
2022-08-07T22:38:04.151Z,19.00
2022-08-07T22:48:31.785Z,18.90
2022-08-07T22:59:04.905Z,18.90
2022-08-07T23:10:04.111Z,18.60
2022-08-07T23:20:40.739Z,18.40
2022-08-07T23:31:05.608Z,18.20
2022-08-07T23:41:33.281Z,18.10
2022-08-07T23:53:01.974Z,18.00
